PWSweather.com
Personal Weather Stations
Station Observations
SUBOTICARS
SuboticaYU

SuboticaYU

Lat: 46.1296717, Lon: 19.641551

Elevation: 361

Station Type: Nexus

http://sumeteo.info

High Low Average
Temperature 63.3°F17.4°C 44.1°F6.7°C 52.9°F11.6°C
Dew Point 38.0°F3.3°C 24.2°F-4.3°C 31.6°F-0.2°C
Winds 16.1 mph 25.9 kmh 2.3 mph 3.7 kmh 7.0 mph NW11.3 kmh NW
Wind Gusts 24.2 mph38.9 kmh 2.3 mph3.7 kmh 8.0 mph12.9 kmh
Humidity 65% 32% 45%
Pressure 29.54 in1000.3 mb 29.43 in996.6 mb -
Precipitation 0.00 in0.0 mm - -
Hour Temp Dew Point Humidity Winds Wind Gusts Pressure Precip Precip Rate Daily Precip Total
12:00 AM 51.6°F10.9°C 25.5°F-3.6°C 36% 5.8 mph WNW9.3 kmh WNW 8.1 mph13.0 kmh 29.49 in998.6 mb - 0.00 in0.0 mm 0.00 in0.0 mm
12:10 AM 51.1°F10.6°C 25.0°F-3.9°C 36% 4.6 mph WNW7.4 kmh WNW 5.8 mph9.3 kmh 29.49 in998.6 mb - 0.00 in0.0 mm 0.00 in0.0 mm
12:15 AM 50.6°F10.3°C 24.6°F-4.1°C 36% 3.5 mph NW5.6 kmh NW 4.6 mph7.4 kmh 29.50 in999.0 mb - 0.00 in0.0 mm 0.00 in0.0 mm
12:20 AM 50.4°F10.2°C 24.4°F-4.2°C 36% 4.6 mph NW7.4 kmh NW 5.8 mph9.3 kmh 29.50 in999.0 mb - 0.00 in0.0 mm 0.00 in0.0 mm
12:25 AM 50.0°F10.0°C 24.1°F-4.4°C 36% 5.8 mph NW9.3 kmh NW 3.5 mph5.6 kmh 29.50 in999.0 mb - 0.00 in0.0 mm 0.00 in0.0 mm
12:30 AM 50.0°F10.0°C 24.1°F-4.4°C 36% 4.6 mph WNW7.4 kmh WNW 5.8 mph9.3 kmh 29.50 in999.0 mb - 0.00 in0.0 mm 0.00 in0.0 mm
12:35 AM 49.8°F9.9°C 25.2°F-3.8°C 38% 4.6 mph WNW7.4 kmh WNW 4.6 mph7.4 kmh 29.50 in999.0 mb - 0.00 in0.0 mm 0.00 in0.0 mm
12:40 AM 49.6°F9.8°C 25.0°F-3.9°C 38% 4.6 mph WNW7.4 kmh WNW 4.6 mph7.4 kmh 29.50 in999.0 mb - 0.00 in0.0 mm 0.00 in0.0 mm
12:45 AM 49.6°F9.8°C 25.0°F-3.9°C 38% 4.6 mph WNW7.4 kmh WNW 4.6 mph7.4 kmh 29.49 in998.6 mb - 0.00 in0.0 mm 0.00 in0.0 mm
12:50 AM 49.6°F9.8°C 25.0°F-3.9°C 38% 4.6 mph WNW7.4 kmh WNW 5.8 mph9.3 kmh 29.49 in998.6 mb - 0.00 in0.0 mm 0.00 in0.0 mm
12:55 AM 49.5°F9.7°C 24.9°F-3.9°C 38% 4.6 mph WNW7.4 kmh WNW 6.9 mph11.1 kmh 29.49 in998.6 mb - 0.00 in0.0 mm 0.00 in0.0 mm
01:00 AM 49.3°F9.6°C 24.7°F-4.1°C 38% 4.6 mph WNW7.4 kmh WNW 4.6 mph7.4 kmh 29.50 in999.0 mb - 0.00 in0.0 mm 0.00 in0.0 mm
01:10 AM 48.7°F9.3°C 24.2°F-4.3°C 38% 3.5 mph WNW5.6 kmh WNW 5.8 mph9.3 kmh 29.50 in999.0 mb - 0.00 in0.0 mm 0.00 in0.0 mm
01:15 AM 48.4°F9.1°C 24.5°F-4.2°C 39% 4.6 mph WNW7.4 kmh WNW 6.9 mph11.1 kmh 29.50 in999.0 mb - 0.00 in0.0 mm 0.00 in0.0 mm
01:20 AM 48.2°F9.0°C 25.0°F-3.9°C 40% 4.6 mph WNW7.4 kmh WNW 5.8 mph9.3 kmh 29.50 in999.0 mb - 0.00 in0.0 mm 0.00 in0.0 mm
01:25 AM 48.4°F9.1°C 25.7°F-3.5°C 41% 4.6 mph WNW7.4 kmh WNW 5.8 mph9.3 kmh 29.50 in999.0 mb - 0.00 in0.0 mm 0.00 in0.0 mm
01:30 AM 48.7°F9.3°C 26.6°F-3.0°C 42% 4.6 mph NW7.4 kmh NW 5.8 mph9.3 kmh 29.50 in999.0 mb - 0.00 in0.0 mm 0.00 in0.0 mm
01:35 AM 48.9°F9.4°C 26.8°F-2.9°C 42% 4.6 mph WNW7.4 kmh WNW 6.9 mph11.1 kmh 29.50 in999.0 mb - 0.00 in0.0 mm 0.00 in0.0 mm
01:40 AM 49.4°F9.7°C 27.8°F-2.3°C 43% 5.8 mph WNW9.3 kmh WNW 5.8 mph9.3 kmh 29.50 in999.0 mb - 0.00 in0.0 mm 0.00 in0.0 mm
01:45 AM 49.7°F9.8°C 28.1°F-2.2°C 43% 4.6 mph WNW7.4 kmh WNW 6.9 mph11.1 kmh 29.49 in998.6 mb - 0.00 in0.0 mm 0.00 in0.0 mm
01:50 AM 49.8°F9.9°C 28.2°F-2.1°C 43% 5.8 mph NW9.3 kmh NW 4.6 mph7.4 kmh 29.49 in998.6 mb - 0.00 in0.0 mm 0.00 in0.0 mm
01:55 AM 50.0°F10.0°C 28.4°F-2.0°C 43% 3.5 mph NW5.6 kmh NW 3.5 mph5.6 kmh 29.49 in998.6 mb - 0.00 in0.0 mm 0.00 in0.0 mm
02:00 AM 49.8°F9.9°C 28.8°F-1.8°C 44% 4.6 mph NW7.4 kmh NW 6.9 mph11.1 kmh 29.49 in998.6 mb - 0.00 in0.0 mm 0.00 in0.0 mm
02:10 AM 49.0°F9.4°C 27.5°F-2.5°C 43% 3.5 mph WNW5.6 kmh WNW 5.8 mph9.3 kmh 29.49 in998.6 mb - 0.00 in0.0 mm 0.00 in0.0 mm
02:15 AM 48.9°F9.4°C 27.4°F-2.6°C 43% 3.5 mph WNW5.6 kmh WNW 4.6 mph7.4 kmh 29.49 in998.6 mb - 0.00 in0.0 mm 0.00 in0.0 mm
02:20 AM 48.6°F9.2°C 27.1°F-2.7°C 43% 3.5 mph WNW5.6 kmh WNW 4.6 mph7.4 kmh 29.49 in998.6 mb - 0.00 in0.0 mm 0.00 in0.0 mm
02:25 AM 48.4°F9.1°C 26.9°F-2.8°C 43% 4.6 mph WNW7.4 kmh WNW 5.8 mph9.3 kmh 29.49 in998.6 mb - 0.00 in0.0 mm 0.00 in0.0 mm
02:30 AM 48.2°F9.0°C 26.7°F-2.9°C 43% 3.5 mph NW5.6 kmh NW 3.5 mph5.6 kmh 29.49 in998.6 mb - 0.00 in0.0 mm 0.00 in0.0 mm
02:35 AM 48.2°F9.0°C 27.3°F-2.6°C 44% 4.6 mph NW7.4 kmh NW 5.8 mph9.3 kmh 29.49 in998.6 mb - 0.00 in0.0 mm 0.00 in0.0 mm
02:40 AM 48.9°F9.4°C 28.4°F-2.0°C 45% 3.5 mph NW5.6 kmh NW 3.5 mph5.6 kmh 29.49 in998.6 mb - 0.00 in0.0 mm 0.00 in0.0 mm
02:45 AM 48.9°F9.4°C 28.5°F-1.9°C 45% 3.5 mph W5.6 kmh W 4.6 mph7.4 kmh 29.49 in998.6 mb - 0.00 in0.0 mm 0.00 in0.0 mm
02:50 AM 49.1°F9.5°C 28.1°F-2.2°C 44% 3.5 mph NW5.6 kmh NW 4.6 mph7.4 kmh 29.49 in998.6 mb - 0.00 in0.0 mm 0.00 in0.0 mm
02:55 AM 49.3°F9.6°C 28.8°F-1.8°C 45% 4.6 mph NNW7.4 kmh NNW 8.1 mph13.0 kmh 29.49 in998.6 mb - 0.00 in0.0 mm 0.00 in0.0 mm
03:00 AM 49.5°F9.7°C 29.0°F-1.7°C 45% 4.6 mph NNW7.4 kmh NNW 5.8 mph9.3 kmh 29.48 in998.3 mb - 0.00 in0.0 mm 0.00 in0.0 mm
03:10 AM 48.7°F9.3°C 27.7°F-2.4°C 44% 3.5 mph W5.6 kmh W 3.5 mph5.6 kmh 29.48 in998.3 mb - 0.00 in0.0 mm 0.00 in0.0 mm
03:15 AM 48.4°F9.1°C 27.4°F-2.6°C 44% 3.5 mph WNW5.6 kmh WNW 4.6 mph7.4 kmh 29.48 in998.3 mb - 0.00 in0.0 mm 0.00 in0.0 mm
03:20 AM 48.2°F9.0°C 27.3°F-2.6°C 44% 3.5 mph WNW5.6 kmh WNW 4.6 mph7.4 kmh 29.48 in998.3 mb - 0.00 in0.0 mm 0.00 in0.0 mm
03:25 AM 47.8°F8.8°C 27.5°F-2.5°C 45% 3.5 mph NW5.6 kmh NW 4.6 mph7.4 kmh 29.48 in998.3 mb - 0.00 in0.0 mm 0.00 in0.0 mm
03:30 AM 48.2°F9.0°C 27.8°F-2.3°C 45% 3.5 mph NNW5.6 kmh NNW 4.6 mph7.4 kmh 29.49 in998.6 mb - 0.00 in0.0 mm 0.00 in0.0 mm
03:35 AM 48.4°F9.1°C 28.0°F-2.2°C 45% 4.6 mph NNW7.4 kmh NNW 3.5 mph5.6 kmh 29.49 in998.6 mb - 0.00 in0.0 mm 0.00 in0.0 mm
03:40 AM 48.9°F9.4°C 29.0°F-1.7°C 46% 4.6 mph NW7.4 kmh NW 5.8 mph9.3 kmh 29.49 in998.6 mb - 0.00 in0.0 mm 0.00 in0.0 mm
03:45 AM 48.6°F9.2°C 28.2°F-2.1°C 45% 3.5 mph WNW5.6 kmh WNW 4.6 mph7.4 kmh 29.49 in998.6 mb - 0.00 in0.0 mm 0.00 in0.0 mm
03:50 AM 48.9°F9.4°C 29.6°F-1.3°C 47% 3.5 mph NW5.6 kmh NW 3.5 mph5.6 kmh 29.49 in998.6 mb - 0.00 in0.0 mm 0.00 in0.0 mm
03:55 AM 48.9°F9.4°C 29.0°F-1.7°C 46% 4.6 mph NW7.4 kmh NW 5.8 mph9.3 kmh 29.49 in998.6 mb - 0.00 in0.0 mm 0.00 in0.0 mm
04:00 AM 48.9°F9.4°C 29.6°F-1.3°C 47% 3.5 mph WNW5.6 kmh WNW 3.5 mph5.6 kmh 29.49 in998.6 mb - 0.00 in0.0 mm 0.00 in0.0 mm
04:10 AM 49.5°F9.7°C 30.0°F-1.1°C 47% 3.5 mph N5.6 kmh N 4.6 mph7.4 kmh 29.49 in998.6 mb - 0.00 in0.0 mm 0.00 in0.0 mm
04:15 AM 49.5°F9.7°C 30.0°F-1.1°C 47% 5.8 mph NW9.3 kmh NW 5.8 mph9.3 kmh 29.49 in998.6 mb - 0.00 in0.0 mm 0.00 in0.0 mm
04:20 AM 49.5°F9.7°C 30.0°F-1.1°C 47% 4.6 mph NW7.4 kmh NW 5.8 mph9.3 kmh 29.49 in998.6 mb - 0.00 in0.0 mm 0.00 in0.0 mm
04:25 AM 50.0°F10.0°C 30.0°F-1.1°C 46% 5.8 mph NNW9.3 kmh NNW 6.9 mph11.1 kmh 29.49 in998.6 mb - 0.00 in0.0 mm 0.00 in0.0 mm
04:30 AM 49.5°F9.7°C 30.0°F-1.1°C 47% 4.6 mph NW7.4 kmh NW 8.1 mph13.0 kmh 29.48 in998.3 mb - 0.00 in0.0 mm 0.00 in0.0 mm
04:35 AM 48.9°F9.4°C 29.5°F-1.4°C 47% 3.5 mph NW5.6 kmh NW 4.6 mph7.4 kmh 29.48 in998.3 mb - 0.00 in0.0 mm 0.00 in0.0 mm
04:40 AM 48.6°F9.2°C 29.2°F-1.6°C 47% 3.5 mph NNW5.6 kmh NNW 4.6 mph7.4 kmh 29.48 in998.3 mb - 0.00 in0.0 mm 0.00 in0.0 mm
04:45 AM 48.4°F9.1°C 29.1°F-1.6°C 47% 3.5 mph WNW5.6 kmh WNW 3.5 mph5.6 kmh 29.48 in998.3 mb - 0.00 in0.0 mm 0.00 in0.0 mm
04:50 AM 48.2°F9.0°C 28.9°F-1.7°C 47% 4.6 mph NW7.4 kmh NW 5.8 mph9.3 kmh 29.48 in998.3 mb - 0.00 in0.0 mm 0.00 in0.0 mm
04:55 AM 48.2°F9.0°C 28.9°F-1.7°C 47% 3.5 mph WNW5.6 kmh WNW 5.8 mph9.3 kmh 29.48 in998.3 mb - 0.00 in0.0 mm 0.00 in0.0 mm
05:00 AM 48.0°F8.9°C 28.7°F-1.8°C 47% 4.6 mph NW7.4 kmh NW 5.8 mph9.3 kmh 29.49 in998.6 mb - 0.00 in0.0 mm 0.00 in0.0 mm
05:10 AM 48.3°F9.1°C 29.5°F-1.4°C 48% 4.6 mph WNW7.4 kmh WNW 4.6 mph7.4 kmh 29.49 in998.6 mb - 0.00 in0.0 mm 0.00 in0.0 mm
05:15 AM 48.0°F8.9°C 29.7°F-1.3°C 49% 4.6 mph WNW7.4 kmh WNW 3.5 mph5.6 kmh 29.49 in998.6 mb - 0.00 in0.0 mm 0.00 in0.0 mm
05:20 AM 48.2°F9.0°C 29.9°F-1.2°C 49% 4.6 mph NW7.4 kmh NW 5.8 mph9.3 kmh 29.49 in998.6 mb - 0.00 in0.0 mm 0.00 in0.0 mm
05:25 AM 48.2°F9.0°C 29.9°F-1.2°C 49% 4.6 mph NW7.4 kmh NW 4.6 mph7.4 kmh 29.49 in998.6 mb - 0.00 in0.0 mm 0.00 in0.0 mm
05:30 AM 47.8°F8.8°C 29.6°F-1.3°C 49% 3.5 mph W5.6 kmh W 4.6 mph7.4 kmh 29.49 in998.6 mb - 0.00 in0.0 mm 0.00 in0.0 mm
05:35 AM 47.6°F8.7°C 29.3°F-1.5°C 49% 4.6 mph WNW7.4 kmh WNW 3.5 mph5.6 kmh 29.49 in998.6 mb - 0.00 in0.0 mm 0.00 in0.0 mm
05:40 AM 47.2°F8.4°C 29.0°F-1.7°C 49% 3.5 mph WSW5.6 kmh WSW 3.5 mph5.6 kmh 29.49 in998.6 mb - 0.00 in0.0 mm 0.00 in0.0 mm
05:45 AM 46.6°F8.1°C 28.4°F-2.0°C 49% 3.5 mph W5.6 kmh W 3.5 mph5.6 kmh 29.50 in999.0 mb - 0.00 in0.0 mm 0.00 in0.0 mm
05:50 AM 46.0°F7.8°C 27.9°F-2.3°C 49% 4.6 mph WNW7.4 kmh WNW 6.9 mph11.1 kmh 29.50 in999.0 mb - 0.00 in0.0 mm 0.00 in0.0 mm
05:55 AM 45.9°F7.7°C 27.8°F-2.3°C 49% 3.5 mph WNW5.6 kmh WNW 4.6 mph7.4 kmh 29.50 in999.0 mb - 0.00 in0.0 mm 0.00 in0.0 mm
06:00 AM 45.4°F7.4°C 27.3°F-2.6°C 49% 3.5 mph NW5.6 kmh NW 5.8 mph9.3 kmh 29.50 in999.0 mb - 0.00 in0.0 mm 0.00 in0.0 mm
06:10 AM 44.6°F7.0°C 27.1°F-2.7°C 50% 3.5 mph W5.6 kmh W 3.5 mph5.6 kmh 29.50 in999.0 mb - 0.00 in0.0 mm 0.00 in0.0 mm
06:15 AM 44.4°F6.9°C 26.9°F-2.8°C 50% 3.5 mph WNW5.6 kmh WNW 5.8 mph9.3 kmh 29.50 in999.0 mb - 0.00 in0.0 mm 0.00 in0.0 mm
06:20 AM 44.1°F6.7°C 26.6°F-3.0°C 50% 3.5 mph WNW5.6 kmh WNW 3.5 mph5.6 kmh 29.50 in999.0 mb - 0.00 in0.0 mm 0.00 in0.0 mm
06:25 AM 44.1°F6.7°C 26.6°F-3.0°C 50% 3.5 mph NW5.6 kmh NW 3.5 mph5.6 kmh 29.50 in999.0 mb - 0.00 in0.0 mm 0.00 in0.0 mm
06:30 AM 44.1°F6.7°C 26.6°F-3.0°C 50% 2.3 mph NW3.7 kmh NW 2.3 mph3.7 kmh 29.50 in999.0 mb - 0.00 in0.0 mm 0.00 in0.0 mm
06:35 AM 44.1°F6.7°C 27.5°F-2.5°C 52% 3.5 mph WNW5.6 kmh WNW 6.9 mph11.1 kmh 29.50 in999.0 mb - 0.00 in0.0 mm 0.00 in0.0 mm
06:40 AM 44.2°F6.8°C 27.7°F-2.4°C 52% 3.5 mph WNW5.6 kmh WNW 3.5 mph5.6 kmh 29.50 in999.0 mb - 0.00 in0.0 mm 0.00 in0.0 mm
06:45 AM 44.4°F6.9°C 27.9°F-2.3°C 52% 4.6 mph WNW7.4 kmh WNW 3.5 mph5.6 kmh 29.50 in999.0 mb - 0.00 in0.0 mm 0.00 in0.0 mm
06:50 AM 44.6°F7.0°C 28.0°F-2.2°C 52% 4.6 mph WNW7.4 kmh WNW 3.5 mph5.6 kmh 29.50 in999.0 mb - 0.00 in0.0 mm 0.00 in0.0 mm
06:55 AM 45.3°F7.4°C 29.6°F-1.3°C 54% 4.6 mph WNW7.4 kmh WNW 6.9 mph11.1 kmh 29.50 in999.0 mb - 0.00 in0.0 mm 0.00 in0.0 mm
07:00 AM 45.3°F7.4°C 29.2°F-1.6°C 53% 4.6 mph NNW7.4 kmh NNW 6.9 mph11.1 kmh 29.51 in999.3 mb - 0.00 in0.0 mm 0.00 in0.0 mm
07:10 AM 45.5°F7.5°C 29.4°F-1.4°C 53% 4.6 mph WNW7.4 kmh WNW 5.8 mph9.3 kmh 29.51 in999.3 mb - 0.00 in0.0 mm 0.00 in0.0 mm
07:15 AM 45.9°F7.7°C 29.7°F-1.3°C 53% 4.6 mph WNW7.4 kmh WNW 5.8 mph9.3 kmh 29.51 in999.3 mb - 0.00 in0.0 mm 0.00 in0.0 mm
07:20 AM 46.2°F7.9°C 30.0°F-1.1°C 53% 3.5 mph W5.6 kmh W 3.5 mph5.6 kmh 29.51 in999.3 mb - 0.00 in0.0 mm 0.00 in0.0 mm
07:25 AM 46.4°F8.0°C 29.7°F-1.3°C 52% 3.5 mph W5.6 kmh W 4.6 mph7.4 kmh 29.51 in999.3 mb - 0.00 in0.0 mm 0.00 in0.0 mm
07:30 AM 46.7°F8.2°C 30.0°F-1.1°C 52% 5.8 mph WNW9.3 kmh WNW 6.9 mph11.1 kmh 29.52 in999.7 mb - 0.00 in0.0 mm 0.00 in0.0 mm
07:35 AM 47.1°F8.4°C 30.4°F-0.9°C 52% 4.6 mph NW7.4 kmh NW 4.6 mph7.4 kmh 29.52 in999.7 mb - 0.00 in0.0 mm 0.00 in0.0 mm
07:40 AM 47.7°F8.7°C 30.9°F-0.6°C 52% 5.8 mph WNW9.3 kmh WNW 8.1 mph13.0 kmh 29.52 in999.7 mb - 0.00 in0.0 mm 0.00 in0.0 mm
07:45 AM 48.2°F9.0°C 31.4°F-0.3°C 52% 5.8 mph NW9.3 kmh NW 9.2 mph14.8 kmh 29.53 in1000.0 mb - 0.00 in0.0 mm 0.00 in0.0 mm
07:50 AM 48.9°F9.4°C 32.0°F0.0°C 52% 8.1 mph W13.0 kmh W 8.1 mph13.0 kmh 29.53 in1000.0 mb - 0.00 in0.0 mm 0.00 in0.0 mm
07:55 AM 49.6°F9.8°C 32.7°F0.4°C 52% 6.9 mph WNW11.1 kmh WNW 12.7 mph20.4 kmh 29.53 in1000.0 mb - 0.00 in0.0 mm 0.00 in0.0 mm
08:00 AM 50.2°F10.1°C 32.7°F0.4°C 51% 4.6 mph W7.4 kmh W 5.8 mph9.3 kmh 29.53 in1000.0 mb - 0.00 in0.0 mm 0.00 in0.0 mm
08:10 AM 51.3°F10.7°C 33.7°F0.9°C 51% 4.6 mph WNW7.4 kmh WNW 8.1 mph13.0 kmh 29.53 in1000.0 mb - 0.00 in0.0 mm 0.00 in0.0 mm
08:15 AM 51.8°F11.0°C 33.7°F0.9°C 50% 8.1 mph WNW13.0 kmh WNW 8.1 mph13.0 kmh 29.53 in1000.0 mb - 0.00 in0.0 mm 0.00 in0.0 mm
08:20 AM 52.3°F11.3°C 34.2°F1.2°C 50% 4.6 mph NW7.4 kmh NW 5.8 mph9.3 kmh 29.53 in1000.0 mb - 0.00 in0.0 mm 0.00 in0.0 mm
08:25 AM 52.7°F11.5°C 34.6°F1.4°C 50% 8.1 mph NW13.0 kmh NW 10.4 mph16.7 kmh 29.53 in1000.0 mb - 0.00 in0.0 mm 0.00 in0.0 mm
08:30 AM 53.1°F11.7°C 34.9°F1.6°C 50% 6.9 mph NW11.1 kmh NW 8.1 mph13.0 kmh 29.53 in1000.0 mb - 0.00 in0.0 mm 0.00 in0.0 mm
08:35 AM 53.2°F11.8°C 35.1°F1.7°C 50% 9.2 mph NW14.8 kmh NW 11.5 mph18.5 kmh 29.53 in1000.0 mb - 0.00 in0.0 mm 0.00 in0.0 mm
08:40 AM 53.2°F11.8°C 34.6°F1.4°C 49% 8.1 mph WNW13.0 kmh WNW 9.2 mph14.8 kmh 29.53 in1000.0 mb - 0.00 in0.0 mm 0.00 in0.0 mm
08:45 AM 53.6°F12.0°C 34.4°F1.3°C 48% 6.9 mph NW11.1 kmh NW 5.8 mph9.3 kmh 29.54 in1000.3 mb - 0.00 in0.0 mm 0.00 in0.0 mm
08:50 AM 54.1°F12.3°C 34.9°F1.6°C 48% 8.1 mph NW13.0 kmh NW 9.2 mph14.8 kmh 29.54 in1000.3 mb - 0.00 in0.0 mm 0.00 in0.0 mm
08:55 AM 54.3°F12.4°C 35.0°F1.7°C 48% 8.1 mph NNW13.0 kmh NNW 8.1 mph13.0 kmh 29.54 in1000.3 mb - 0.00 in0.0 mm 0.00 in0.0 mm
09:00 AM 54.7°F12.6°C 34.8°F1.6°C 47% 11.5 mph NW18.5 kmh NW 11.5 mph18.5 kmh 29.54 in1000.3 mb - 0.00 in0.0 mm 0.00 in0.0 mm
09:10 AM 55.4°F13.0°C 35.5°F1.9°C 47% 10.4 mph NNW16.7 kmh NNW 12.7 mph20.4 kmh 29.54 in1000.3 mb - 0.00 in0.0 mm 0.00 in0.0 mm
09:15 AM 55.9°F13.3°C 36.0°F2.2°C 47% 10.4 mph NW16.7 kmh NW 11.5 mph18.5 kmh 29.53 in1000.0 mb - 0.00 in0.0 mm 0.00 in0.0 mm
09:20 AM 56.1°F13.4°C 35.6°F2.0°C 46% 9.2 mph N14.8 kmh N 11.5 mph18.5 kmh 29.53 in1000.0 mb - 0.00 in0.0 mm 0.00 in0.0 mm
09:25 AM 56.7°F13.7°C 36.1°F2.3°C 46% 6.9 mph NW11.1 kmh NW 8.1 mph13.0 kmh 29.53 in1000.0 mb - 0.00 in0.0 mm 0.00 in0.0 mm
09:30 AM 56.8°F13.8°C 36.3°F2.4°C 46% 11.5 mph NNW18.5 kmh NNW 16.1 mph25.9 kmh 29.53 in1000.0 mb - 0.00 in0.0 mm 0.00 in0.0 mm
09:35 AM 56.9°F13.8°C 36.3°F2.4°C 46% 11.5 mph WNW18.5 kmh WNW 13.8 mph22.2 kmh 29.53 in1000.0 mb - 0.00 in0.0 mm 0.00 in0.0 mm
09:40 AM 57.0°F13.9°C 36.4°F2.4°C 46% 8.1 mph NNW13.0 kmh NNW 11.5 mph18.5 kmh 29.53 in1000.0 mb - 0.00 in0.0 mm 0.00 in0.0 mm
09:45 AM 56.8°F13.8°C 36.3°F2.4°C 46% 12.7 mph NNW20.4 kmh NNW 13.8 mph22.2 kmh 29.53 in1000.0 mb - 0.00 in0.0 mm 0.00 in0.0 mm
09:50 AM 56.5°F13.6°C 36.5°F2.5°C 47% 13.8 mph NNW22.2 kmh NNW 10.4 mph16.7 kmh 29.53 in1000.0 mb - 0.00 in0.0 mm 0.00 in0.0 mm
09:55 AM 57.1°F13.9°C 37.1°F2.8°C 47% 9.2 mph WNW14.8 kmh WNW 12.7 mph20.4 kmh 29.53 in1000.0 mb - 0.00 in0.0 mm 0.00 in0.0 mm
10:00 AM 57.6°F14.2°C 37.5°F3.1°C 47% 10.4 mph NNE16.7 kmh NNE 13.8 mph22.2 kmh 29.52 in999.7 mb - 0.00 in0.0 mm 0.00 in0.0 mm
10:10 AM 58.1°F14.5°C 38.0°F3.3°C 47% 11.5 mph NW18.5 kmh NW 13.8 mph22.2 kmh 29.52 in999.7 mb - 0.00 in0.0 mm 0.00 in0.0 mm
10:15 AM 57.7°F14.3°C 37.1°F2.8°C 46% 10.4 mph NE16.7 kmh NE 15.0 mph24.1 kmh 29.52 in999.7 mb - 0.00 in0.0 mm 0.00 in0.0 mm
10:20 AM 58.1°F14.5°C 38.0°F3.3°C 47% 12.7 mph NW20.4 kmh NW 17.3 mph27.8 kmh 29.52 in999.7 mb - 0.00 in0.0 mm 0.00 in0.0 mm
10:25 AM 58.8°F14.9°C 38.0°F3.3°C 46% 9.2 mph NNW14.8 kmh NNW 12.7 mph20.4 kmh 29.52 in999.7 mb - 0.00 in0.0 mm 0.00 in0.0 mm
10:30 AM 58.5°F14.7°C 37.8°F3.2°C 46% 8.1 mph WSW13.0 kmh WSW 15.0 mph24.1 kmh 29.52 in999.7 mb - 0.00 in0.0 mm 0.00 in0.0 mm
10:35 AM 58.3°F14.6°C 37.6°F3.1°C 46% 10.4 mph NW16.7 kmh NW 12.7 mph20.4 kmh 29.52 in999.7 mb - 0.00 in0.0 mm 0.00 in0.0 mm
10:40 AM 59.0°F15.0°C 37.7°F3.2°C 45% 8.1 mph NW13.0 kmh NW 9.2 mph14.8 kmh 29.52 in999.7 mb - 0.00 in0.0 mm 0.00 in0.0 mm
10:45 AM 59.0°F15.0°C 37.1°F2.8°C 44% 10.4 mph NW16.7 kmh NW 12.7 mph20.4 kmh 29.52 in999.7 mb - 0.00 in0.0 mm 0.00 in0.0 mm
10:50 AM 59.2°F15.1°C 37.8°F3.2°C 45% 10.4 mph NNW16.7 kmh NNW 11.5 mph18.5 kmh 29.52 in999.7 mb - 0.00 in0.0 mm 0.00 in0.0 mm
10:55 AM 59.0°F15.0°C 37.1°F2.8°C 44% 12.7 mph NNW20.4 kmh NNW 15.0 mph24.1 kmh 29.52 in999.7 mb - 0.00 in0.0 mm 0.00 in0.0 mm
11:00 AM 59.6°F15.3°C 37.7°F3.2°C 44% 8.1 mph WNW13.0 kmh WNW 8.1 mph13.0 kmh 29.52 in999.7 mb - 0.00 in0.0 mm 0.00 in0.0 mm
11:10 AM 59.9°F15.5°C 37.3°F2.9°C 43% 9.2 mph NNW14.8 kmh NNW 11.5 mph18.5 kmh 29.52 in999.7 mb - 0.00 in0.0 mm 0.00 in0.0 mm
11:15 AM 59.5°F15.3°C 37.0°F2.8°C 43% 9.2 mph N14.8 kmh N 10.4 mph16.7 kmh 29.51 in999.3 mb - 0.00 in0.0 mm 0.00 in0.0 mm
11:20 AM 60.4°F15.8°C 37.2°F2.9°C 42% 8.1 mph NW13.0 kmh NW 12.7 mph20.4 kmh 29.51 in999.3 mb - 0.00 in0.0 mm 0.00 in0.0 mm
11:25 AM 60.6°F15.9°C 36.1°F2.3°C 40% 11.5 mph NNW18.5 kmh NNW 15.0 mph24.1 kmh 29.51 in999.3 mb - 0.00 in0.0 mm 0.00 in0.0 mm
11:30 AM 60.4°F15.8°C 35.3°F1.8°C 39% 13.8 mph NNW22.2 kmh NNW 20.7 mph33.3 kmh 29.50 in999.0 mb - 0.00 in0.0 mm 0.00 in0.0 mm
11:35 AM 60.5°F15.8°C 35.4°F1.9°C 39% 11.5 mph WNW18.5 kmh WNW 11.5 mph18.5 kmh 29.50 in999.0 mb - 0.00 in0.0 mm 0.00 in0.0 mm
11:40 AM 61.2°F16.2°C 36.0°F2.2°C 39% 13.8 mph NNW22.2 kmh NNW 23.0 mph37.0 kmh 29.50 in999.0 mb - 0.00 in0.0 mm 0.00 in0.0 mm
11:45 AM 60.8°F16.0°C 35.7°F2.1°C 39% 16.1 mph NNW25.9 kmh NNW 24.2 mph38.9 kmh 29.50 in999.0 mb - 0.00 in0.0 mm 0.00 in0.0 mm
11:50 AM 60.6°F15.9°C 34.9°F1.6°C 38% 13.8 mph NNW22.2 kmh NNW 12.7 mph20.4 kmh 29.50 in999.0 mb - 0.00 in0.0 mm 0.00 in0.0 mm
11:55 AM 60.9°F16.1°C 35.1°F1.7°C 38% 11.5 mph WNW18.5 kmh WNW 13.8 mph22.2 kmh 29.50 in999.0 mb - 0.00 in0.0 mm 0.00 in0.0 mm
12:00 PM 61.5°F16.4°C 34.9°F1.6°C 37% 9.2 mph W14.8 kmh W 10.4 mph16.7 kmh 29.50 in999.0 mb - 0.00 in0.0 mm 0.00 in0.0 mm
12:10 PM 61.9°F16.6°C 35.3°F1.8°C 37% 12.7 mph NNW20.4 kmh NNW 15.0 mph24.1 kmh 29.50 in999.0 mb - 0.00 in0.0 mm 0.00 in0.0 mm
12:15 PM 60.8°F16.0°C 33.7°F0.9°C 36% 10.4 mph NW16.7 kmh NW 13.8 mph22.2 kmh 29.49 in998.6 mb - 0.00 in0.0 mm 0.00 in0.0 mm
12:20 PM 60.4°F15.8°C 34.0°F1.1°C 37% 8.1 mph NNW13.0 kmh NNW 13.8 mph22.2 kmh 29.49 in998.6 mb - 0.00 in0.0 mm 0.00 in0.0 mm
12:25 PM 60.8°F16.0°C 33.7°F0.9°C 36% 11.5 mph N18.5 kmh N 13.8 mph22.2 kmh 29.49 in998.6 mb - 0.00 in0.0 mm 0.00 in0.0 mm
12:30 PM 60.6°F15.9°C 33.5°F0.8°C 36% 11.5 mph NW18.5 kmh NW 13.8 mph22.2 kmh 29.48 in998.3 mb - 0.00 in0.0 mm 0.00 in0.0 mm
12:35 PM 60.4°F15.8°C 33.3°F0.7°C 36% 13.8 mph NNW22.2 kmh NNW 12.7 mph20.4 kmh 29.48 in998.3 mb - 0.00 in0.0 mm 0.00 in0.0 mm
12:40 PM 59.4°F15.2°C 31.7°F-0.2°C 35% 12.7 mph NW20.4 kmh NW 13.8 mph22.2 kmh 29.48 in998.3 mb - 0.00 in0.0 mm 0.00 in0.0 mm
12:45 PM 60.8°F16.0°C 33.0°F0.6°C 35% 10.4 mph WNW16.7 kmh WNW 12.7 mph20.4 kmh 29.48 in998.3 mb - 0.00 in0.0 mm 0.00 in0.0 mm
12:50 PM 60.8°F16.0°C 32.9°F0.5°C 35% 10.4 mph WNW16.7 kmh WNW 12.7 mph20.4 kmh 29.48 in998.3 mb - 0.00 in0.0 mm 0.00 in0.0 mm
12:55 PM 60.0°F15.6°C 32.2°F0.1°C 35% 9.2 mph NW14.8 kmh NW 11.5 mph18.5 kmh 29.48 in998.3 mb - 0.00 in0.0 mm 0.00 in0.0 mm
01:00 PM 59.9°F15.5°C 32.2°F0.1°C 35% 11.5 mph NW18.5 kmh NW 11.5 mph18.5 kmh 29.48 in998.3 mb - 0.00 in0.0 mm 0.00 in0.0 mm
01:10 PM 61.7°F16.5°C 33.0°F0.6°C 34% 10.4 mph N16.7 kmh N 9.2 mph14.8 kmh 29.48 in998.3 mb - 0.00 in0.0 mm 0.00 in0.0 mm
01:15 PM 62.8°F17.1°C 33.2°F0.7°C 33% 10.4 mph NW16.7 kmh NW 9.2 mph14.8 kmh 29.46 in997.6 mb - 0.00 in0.0 mm 0.00 in0.0 mm
01:20 PM 62.9°F17.2°C 33.3°F0.7°C 33% 9.2 mph NNW14.8 kmh NNW 16.1 mph25.9 kmh 29.46 in997.6 mb - 0.00 in0.0 mm 0.00 in0.0 mm
01:25 PM 62.3°F16.8°C 32.8°F0.4°C 33% 11.5 mph N18.5 kmh N 11.5 mph18.5 kmh 29.46 in997.6 mb - 0.00 in0.0 mm 0.00 in0.0 mm
01:30 PM 61.9°F16.6°C 32.4°F0.2°C 33% 12.7 mph WNW20.4 kmh WNW 16.1 mph25.9 kmh 29.46 in997.6 mb - 0.00 in0.0 mm 0.00 in0.0 mm
01:35 PM 61.7°F16.5°C 32.3°F0.2°C 33% 9.2 mph NW14.8 kmh NW 11.5 mph18.5 kmh 29.46 in997.6 mb - 0.00 in0.0 mm 0.00 in0.0 mm
01:40 PM 62.8°F17.1°C 32.5°F0.3°C 32% 10.4 mph WNW16.7 kmh WNW 16.1 mph25.9 kmh 29.46 in997.6 mb - 0.00 in0.0 mm 0.00 in0.0 mm
01:45 PM 61.5°F16.4°C 32.1°F0.1°C 33% 8.1 mph NNW13.0 kmh NNW 11.5 mph18.5 kmh 29.46 in997.6 mb - 0.00 in0.0 mm 0.00 in0.0 mm
01:50 PM 62.5°F16.9°C 32.2°F0.1°C 32% 11.5 mph NW18.5 kmh NW 13.8 mph22.2 kmh 29.46 in997.6 mb - 0.00 in0.0 mm 0.00 in0.0 mm
01:55 PM 63.3°F17.4°C 32.9°F0.5°C 32% 9.2 mph NW14.8 kmh NW 10.4 mph16.7 kmh 29.46 in997.6 mb - 0.00 in0.0 mm 0.00 in0.0 mm
02:00 PM 63.1°F17.3°C 32.8°F0.4°C 32% 6.9 mph NNW11.1 kmh NNW 10.4 mph16.7 kmh 29.45 in997.3 mb - 0.00 in0.0 mm 0.00 in0.0 mm
02:10 PM 61.7°F16.5°C 32.3°F0.2°C 33% 10.4 mph NNW16.7 kmh NNW 12.7 mph20.4 kmh 29.45 in997.3 mb - 0.00 in0.0 mm 0.00 in0.0 mm
02:15 PM 61.2°F16.2°C 31.8°F-0.1°C 33% 11.5 mph NW18.5 kmh NW 12.7 mph20.4 kmh 29.45 in997.3 mb - 0.00 in0.0 mm 0.00 in0.0 mm
02:20 PM 61.2°F16.2°C 31.8°F-0.1°C 33% 10.4 mph NNW16.7 kmh NNW 18.4 mph29.6 kmh 29.45 in997.3 mb - 0.00 in0.0 mm 0.00 in0.0 mm
02:25 PM 60.9°F16.1°C 31.6°F-0.2°C 33% 12.7 mph N20.4 kmh N 13.8 mph22.2 kmh 29.45 in997.3 mb - 0.00 in0.0 mm 0.00 in0.0 mm
02:30 PM 60.8°F16.0°C 31.5°F-0.3°C 33% 8.1 mph WNW13.0 kmh WNW 8.1 mph13.0 kmh 29.45 in997.3 mb - 0.00 in0.0 mm 0.00 in0.0 mm
02:35 PM 61.0°F16.1°C 31.6°F-0.2°C 33% 9.2 mph NW14.8 kmh NW 10.4 mph16.7 kmh 29.45 in997.3 mb - 0.00 in0.0 mm 0.00 in0.0 mm
02:40 PM 60.6°F15.9°C 31.3°F-0.4°C 33% 8.1 mph NNW13.0 kmh NNW 11.5 mph18.5 kmh 29.45 in997.3 mb - 0.00 in0.0 mm 0.00 in0.0 mm
02:45 PM 60.4°F15.8°C 31.2°F-0.4°C 33% 8.1 mph NNW13.0 kmh NNW 9.2 mph14.8 kmh 29.45 in997.3 mb - 0.00 in0.0 mm 0.00 in0.0 mm
02:50 PM 61.0°F16.1°C 31.6°F-0.2°C 33% 8.1 mph NW13.0 kmh NW 11.5 mph18.5 kmh 29.45 in997.3 mb - 0.00 in0.0 mm 0.00 in0.0 mm
02:55 PM 60.5°F15.8°C 31.3°F-0.4°C 33% 12.7 mph WNW20.4 kmh WNW 15.0 mph24.1 kmh 29.45 in997.3 mb - 0.00 in0.0 mm 0.00 in0.0 mm
03:00 PM 60.6°F15.9°C 31.3°F-0.4°C 33% 8.1 mph NW13.0 kmh NW 11.5 mph18.5 kmh 29.45 in997.3 mb - 0.00 in0.0 mm 0.00 in0.0 mm
03:10 PM 60.3°F15.7°C 31.0°F-0.6°C 33% 9.2 mph NNW14.8 kmh NNW 11.5 mph18.5 kmh 29.45 in997.3 mb - 0.00 in0.0 mm 0.00 in0.0 mm
03:15 PM 60.4°F15.8°C 31.9°F-0.1°C 34% 5.8 mph NW9.3 kmh NW 12.7 mph20.4 kmh 29.44 in997.0 mb - 0.00 in0.0 mm 0.00 in0.0 mm
03:20 PM 60.3°F15.7°C 31.0°F-0.6°C 33% 9.2 mph NNW14.8 kmh NNW 11.5 mph18.5 kmh 29.44 in997.0 mb - 0.00 in0.0 mm 0.00 in0.0 mm
03:25 PM 60.4°F15.8°C 31.1°F-0.5°C 33% 6.9 mph NNE11.1 kmh NNE 9.2 mph14.8 kmh 29.44 in997.0 mb - 0.00 in0.0 mm 0.00 in0.0 mm
03:30 PM 60.8°F16.0°C 31.5°F-0.3°C 33% 8.1 mph NNW13.0 kmh NNW 13.8 mph22.2 kmh 29.44 in997.0 mb - 0.00 in0.0 mm 0.00 in0.0 mm
03:35 PM 59.9°F15.5°C 30.7°F-0.7°C 33% 9.2 mph ENE14.8 kmh ENE 10.4 mph16.7 kmh 29.44 in997.0 mb - 0.00 in0.0 mm 0.00 in0.0 mm
03:40 PM 60.3°F15.7°C 31.0°F-0.6°C 33% 8.1 mph WNW13.0 kmh WNW 8.1 mph13.0 kmh 29.44 in997.0 mb - 0.00 in0.0 mm 0.00 in0.0 mm
03:45 PM 60.4°F15.8°C 31.2°F-0.4°C 33% 11.5 mph NW18.5 kmh NW 11.5 mph18.5 kmh 29.43 in996.6 mb - 0.00 in0.0 mm 0.00 in0.0 mm
03:50 PM 59.6°F15.3°C 30.4°F-0.9°C 33% 11.5 mph NNW18.5 kmh NNW 17.3 mph27.8 kmh 29.43 in996.6 mb - 0.00 in0.0 mm 0.00 in0.0 mm
03:55 PM 59.8°F15.4°C 30.6°F-0.8°C 33% 5.8 mph NNW9.3 kmh NNW 5.8 mph9.3 kmh 29.43 in996.6 mb - 0.00 in0.0 mm 0.00 in0.0 mm
04:00 PM 60.4°F15.8°C 31.2°F-0.4°C 33% 6.9 mph NW11.1 kmh NW 6.9 mph11.1 kmh 29.44 in997.0 mb - 0.00 in0.0 mm 0.00 in0.0 mm
04:10 PM 61.0°F16.1°C 31.6°F-0.2°C 33% 5.8 mph NW9.3 kmh NW 5.8 mph9.3 kmh 29.44 in997.0 mb - 0.00 in0.0 mm 0.00 in0.0 mm
04:15 PM 60.8°F16.0°C 31.5°F-0.3°C 33% 6.9 mph NW11.1 kmh NW 8.1 mph13.0 kmh 29.43 in996.6 mb - 0.00 in0.0 mm 0.00 in0.0 mm
04:20 PM 60.6°F15.9°C 31.3°F-0.4°C 33% 10.4 mph NNW16.7 kmh NNW 17.3 mph27.8 kmh 29.43 in996.6 mb - 0.00 in0.0 mm 0.00 in0.0 mm
04:25 PM 60.2°F15.7°C 31.0°F-0.6°C 33% 6.9 mph NNW11.1 kmh NNW 11.5 mph18.5 kmh 29.43 in996.6 mb - 0.00 in0.0 mm 0.00 in0.0 mm
04:30 PM 59.9°F15.5°C 30.7°F-0.7°C 33% 8.1 mph NNW13.0 kmh NNW 11.5 mph18.5 kmh 29.44 in997.0 mb - 0.00 in0.0 mm 0.00 in0.0 mm
04:35 PM 59.7°F15.4°C 30.5°F-0.8°C 33% 10.4 mph NW16.7 kmh NW 11.5 mph18.5 kmh 29.44 in997.0 mb - 0.00 in0.0 mm 0.00 in0.0 mm
04:40 PM 59.0°F15.0°C 30.6°F-0.8°C 34% 5.8 mph 9.3 kmh 5.8 mph9.3 kmh 29.44 in997.0 mb - 0.00 in0.0 mm 0.00 in0.0 mm
04:45 PM 58.8°F14.9°C 31.2°F-0.4°C 35% 6.9 mph NNW11.1 kmh NNW 8.1 mph13.0 kmh 29.44 in997.0 mb - 0.00 in0.0 mm 0.00 in0.0 mm
04:50 PM 58.5°F14.7°C 30.9°F-0.6°C 35% 8.1 mph NNW13.0 kmh NNW 8.1 mph13.0 kmh 29.44 in997.0 mb - 0.00 in0.0 mm 0.00 in0.0 mm
04:55 PM 58.4°F14.7°C 30.8°F-0.7°C 35% 6.9 mph N11.1 kmh N 8.1 mph13.0 kmh 29.44 in997.0 mb - 0.00 in0.0 mm 0.00 in0.0 mm
05:00 PM 58.3°F14.6°C 30.7°F-0.7°C 35% 4.6 mph NNW7.4 kmh NNW 4.6 mph7.4 kmh 29.44 in997.0 mb - 0.00 in0.0 mm 0.00 in0.0 mm
05:10 PM 57.9°F14.4°C 31.1°F-0.5°C 36% 5.8 mph NNW9.3 kmh NNW 6.9 mph11.1 kmh 29.44 in997.0 mb - 0.00 in0.0 mm 0.00 in0.0 mm
05:15 PM 57.8°F14.3°C 31.0°F-0.6°C 36% 6.9 mph NNW11.1 kmh NNW 8.1 mph13.0 kmh 29.44 in997.0 mb - 0.00 in0.0 mm 0.00 in0.0 mm
05:20 PM 57.7°F14.3°C 30.9°F-0.6°C 36% 5.8 mph NNW9.3 kmh NNW 5.8 mph9.3 kmh 29.44 in997.0 mb - 0.00 in0.0 mm 0.00 in0.0 mm
05:25 PM 57.6°F14.2°C 30.8°F-0.7°C 36% 6.9 mph NW11.1 kmh NW 9.2 mph14.8 kmh 29.44 in997.0 mb - 0.00 in0.0 mm 0.00 in0.0 mm
05:30 PM 57.4°F14.1°C 30.6°F-0.8°C 36% 5.8 mph NNW9.3 kmh NNW 8.1 mph13.0 kmh 29.45 in997.3 mb - 0.00 in0.0 mm 0.00 in0.0 mm
05:35 PM 57.2°F14.0°C 31.1°F-0.5°C 37% 5.8 mph N9.3 kmh N 6.9 mph11.1 kmh 29.45 in997.3 mb - 0.00 in0.0 mm 0.00 in0.0 mm
05:40 PM 57.2°F14.0°C 31.1°F-0.5°C 37% 5.8 mph N9.3 kmh N 8.1 mph13.0 kmh 29.45 in997.3 mb - 0.00 in0.0 mm 0.00 in0.0 mm
05:45 PM 57.0°F13.9°C 31.6°F-0.2°C 38% 5.8 mph NNW9.3 kmh NNW 6.9 mph11.1 kmh 29.44 in997.0 mb - 0.00 in0.0 mm 0.00 in0.0 mm
05:50 PM 56.8°F13.8°C 32.1°F0.1°C 39% 5.8 mph NNW9.3 kmh NNW 8.1 mph13.0 kmh 29.44 in997.0 mb - 0.00 in0.0 mm 0.00 in0.0 mm
05:55 PM 56.6°F13.7°C 31.9°F-0.1°C 39% 5.8 mph NNW9.3 kmh NNW 8.1 mph13.0 kmh 29.44 in997.0 mb - 0.00 in0.0 mm 0.00 in0.0 mm
06:00 PM 56.5°F13.6°C 31.8°F-0.1°C 39% 4.6 mph N7.4 kmh N 5.8 mph9.3 kmh 29.46 in997.6 mb - 0.00 in0.0 mm 0.00 in0.0 mm
06:10 PM 55.4°F13.0°C 30.8°F-0.7°C 39% 2.3 mph NW3.7 kmh NW 3.5 mph5.6 kmh 29.46 in997.6 mb - 0.00 in0.0 mm 0.00 in0.0 mm
06:15 PM 55.2°F12.9°C 31.9°F-0.1°C 41% 6.9 mph N11.1 kmh N 9.2 mph14.8 kmh 29.46 in997.6 mb - 0.00 in0.0 mm 0.00 in0.0 mm
06:20 PM 55.0°F12.8°C 31.7°F-0.2°C 41% 5.8 mph NNW9.3 kmh NNW 8.1 mph13.0 kmh 29.46 in997.6 mb - 0.00 in0.0 mm 0.00 in0.0 mm
06:25 PM 54.9°F12.7°C 32.2°F0.1°C 42% 5.8 mph NNW9.3 kmh NNW 5.8 mph9.3 kmh 29.46 in997.6 mb - 0.00 in0.0 mm 0.00 in0.0 mm
06:30 PM 55.0°F12.8°C 32.3°F0.2°C 42% 5.8 mph NNW9.3 kmh NNW 5.8 mph9.3 kmh 29.46 in997.6 mb - 0.00 in0.0 mm 0.00 in0.0 mm
06:35 PM 54.9°F12.7°C 32.8°F0.4°C 43% 4.6 mph NW7.4 kmh NW 3.5 mph5.6 kmh 29.46 in997.6 mb - 0.00 in0.0 mm 0.00 in0.0 mm
06:40 PM 54.7°F12.6°C 32.0°F0.0°C 42% 3.5 mph NW5.6 kmh NW 5.8 mph9.3 kmh 29.46 in997.6 mb - 0.00 in0.0 mm 0.00 in0.0 mm
06:45 PM 54.5°F12.5°C 32.4°F0.2°C 43% 4.6 mph NW7.4 kmh NW 4.6 mph7.4 kmh 29.46 in997.6 mb - 0.00 in0.0 mm 0.00 in0.0 mm
06:50 PM 54.2°F12.3°C 32.2°F0.1°C 43% 3.5 mph NNW5.6 kmh NNW 4.6 mph7.4 kmh 29.46 in997.6 mb - 0.00 in0.0 mm 0.00 in0.0 mm
06:55 PM 54.1°F12.3°C 32.7°F0.4°C 44% 4.6 mph NW7.4 kmh NW 8.1 mph13.0 kmh 29.46 in997.6 mb - 0.00 in0.0 mm 0.00 in0.0 mm
07:00 PM 54.1°F12.3°C 32.7°F0.4°C 44% 3.5 mph NNW5.6 kmh NNW 4.6 mph7.4 kmh 29.46 in997.6 mb - 0.00 in0.0 mm 0.00 in0.0 mm
07:10 PM 53.8°F12.1°C 32.4°F0.2°C 44% 4.6 mph NNW7.4 kmh NNW 6.9 mph11.1 kmh 29.46 in997.6 mb - 0.00 in0.0 mm 0.00 in0.0 mm
07:15 PM 53.6°F12.0°C 32.2°F0.1°C 44% 5.8 mph NW9.3 kmh NW 3.5 mph5.6 kmh 29.46 in997.6 mb - 0.00 in0.0 mm 0.00 in0.0 mm
07:20 PM 53.4°F11.9°C 32.6°F0.3°C 45% 4.6 mph NNW7.4 kmh NNW 5.8 mph9.3 kmh 29.46 in997.6 mb - 0.00 in0.0 mm 0.00 in0.0 mm
07:25 PM 53.2°F11.8°C 32.4°F0.2°C 45% 5.8 mph NNW9.3 kmh NNW 9.2 mph14.8 kmh 29.46 in997.6 mb - 0.00 in0.0 mm 0.00 in0.0 mm
07:30 PM 52.9°F11.6°C 32.1°F0.1°C 45% 5.8 mph NNW9.3 kmh NNW 6.9 mph11.1 kmh 29.47 in998.0 mb - 0.00 in0.0 mm 0.00 in0.0 mm
07:35 PM 52.3°F11.3°C 31.6°F-0.2°C 45% 5.8 mph WNW9.3 kmh WNW 8.1 mph13.0 kmh 29.47 in998.0 mb - 0.00 in0.0 mm 0.00 in0.0 mm
07:40 PM 52.0°F11.1°C 31.8°F-0.1°C 46% 4.6 mph NNW7.4 kmh NNW 5.8 mph9.3 kmh 29.47 in998.0 mb - 0.00 in0.0 mm 0.00 in0.0 mm
07:45 PM 51.5°F10.8°C 31.4°F-0.3°C 46% 3.5 mph NW5.6 kmh NW 4.6 mph7.4 kmh 29.47 in998.0 mb - 0.00 in0.0 mm 0.00 in0.0 mm
07:50 PM 51.3°F10.7°C 31.2°F-0.4°C 46% 3.5 mph NW5.6 kmh NW 4.6 mph7.4 kmh 29.47 in998.0 mb - 0.00 in0.0 mm 0.00 in0.0 mm
07:55 PM 50.7°F10.4°C 31.2°F-0.4°C 47% 3.5 mph NW5.6 kmh NW 3.5 mph5.6 kmh 29.47 in998.0 mb - 0.00 in0.0 mm 0.00 in0.0 mm
08:00 PM 50.5°F10.3°C 31.6°F-0.2°C 48% 5.8 mph NNW9.3 kmh NNW 6.9 mph11.1 kmh 29.46 in997.6 mb - 0.00 in0.0 mm 0.00 in0.0 mm
08:10 PM 50.4°F10.2°C 31.9°F-0.1°C 49% 5.8 mph NW9.3 kmh NW 6.9 mph11.1 kmh 29.46 in997.6 mb - 0.00 in0.0 mm 0.00 in0.0 mm
08:15 PM 50.2°F10.1°C 32.2°F0.1°C 50% 6.9 mph NNW11.1 kmh NNW 8.1 mph13.0 kmh 29.47 in998.0 mb - 0.00 in0.0 mm 0.00 in0.0 mm
08:20 PM 50.0°F10.0°C 32.6°F0.3°C 51% 6.9 mph NNW11.1 kmh NNW 8.1 mph13.0 kmh 29.47 in998.0 mb - 0.00 in0.0 mm 0.00 in0.0 mm
08:25 PM 50.0°F10.0°C 32.6°F0.3°C 51% 9.2 mph NW14.8 kmh NW 11.5 mph18.5 kmh 29.47 in998.0 mb - 0.00 in0.0 mm 0.00 in0.0 mm
08:30 PM 49.8°F9.9°C 32.9°F0.5°C 52% 6.9 mph NNW11.1 kmh NNW 6.9 mph11.1 kmh 29.48 in998.3 mb - 0.00 in0.0 mm 0.00 in0.0 mm
08:35 PM 49.5°F9.7°C 32.6°F0.3°C 52% 4.6 mph NNW7.4 kmh NNW 5.8 mph9.3 kmh 29.48 in998.3 mb - 0.00 in0.0 mm 0.00 in0.0 mm
08:40 PM 48.9°F9.4°C 32.1°F0.1°C 52% 5.8 mph NNW9.3 kmh NNW 9.2 mph14.8 kmh 29.48 in998.3 mb - 0.00 in0.0 mm 0.00 in0.0 mm
08:45 PM 48.9°F9.4°C 32.5°F0.3°C 53% 4.6 mph NNW7.4 kmh NNW 4.6 mph7.4 kmh 29.47 in998.0 mb - 0.00 in0.0 mm 0.00 in0.0 mm
08:50 PM 48.7°F9.3°C 32.4°F0.2°C 53% 5.8 mph NW9.3 kmh NW 6.9 mph11.1 kmh 29.47 in998.0 mb - 0.00 in0.0 mm 0.00 in0.0 mm
08:55 PM 48.6°F9.2°C 32.6°F0.3°C 54% 4.6 mph NW7.4 kmh NW 5.8 mph9.3 kmh 29.47 in998.0 mb - 0.00 in0.0 mm 0.00 in0.0 mm
09:00 PM 48.2°F9.0°C 31.9°F-0.1°C 53% 4.6 mph NW7.4 kmh NW 5.8 mph9.3 kmh 29.48 in998.3 mb - 0.00 in0.0 mm 0.00 in0.0 mm
09:10 PM 47.8°F8.8°C 32.4°F0.2°C 55% 3.5 mph NNW5.6 kmh NNW 5.8 mph9.3 kmh 29.48 in998.3 mb - 0.00 in0.0 mm 0.00 in0.0 mm
09:15 PM 47.5°F8.6°C 32.1°F0.1°C 55% 3.5 mph NW5.6 kmh NW 5.8 mph9.3 kmh 29.47 in998.0 mb - 0.00 in0.0 mm 0.00 in0.0 mm
09:20 PM 47.2°F8.4°C 31.9°F-0.1°C 55% 3.5 mph NW5.6 kmh NW 3.5 mph5.6 kmh 29.47 in998.0 mb - 0.00 in0.0 mm 0.00 in0.0 mm
09:25 PM 46.9°F8.3°C 31.6°F-0.2°C 55% 3.5 mph NNW5.6 kmh NNW 3.5 mph5.6 kmh 29.47 in998.0 mb - 0.00 in0.0 mm 0.00 in0.0 mm
09:30 PM 46.8°F8.2°C 31.4°F-0.3°C 55% 3.5 mph NW5.6 kmh NW 4.6 mph7.4 kmh 29.48 in998.3 mb - 0.00 in0.0 mm 0.00 in0.0 mm
09:35 PM 46.6°F8.1°C 31.7°F-0.2°C 56% 3.5 mph NW5.6 kmh NW 5.8 mph9.3 kmh 29.48 in998.3 mb - 0.00 in0.0 mm 0.00 in0.0 mm
09:40 PM 46.4°F8.0°C 31.6°F-0.2°C 56% 3.5 mph NNW5.6 kmh NNW 4.6 mph7.4 kmh 29.48 in998.3 mb - 0.00 in0.0 mm 0.00 in0.0 mm
09:45 PM 46.1°F7.8°C 31.7°F-0.2°C 57% 3.5 mph NNW5.6 kmh NNW 4.6 mph7.4 kmh 29.48 in998.3 mb - 0.00 in0.0 mm 0.00 in0.0 mm
09:50 PM 45.9°F7.7°C 31.9°F-0.1°C 58% 3.5 mph NW5.6 kmh NW 3.5 mph5.6 kmh 29.48 in998.3 mb - 0.00 in0.0 mm 0.00 in0.0 mm
09:55 PM 45.9°F7.7°C 31.9°F-0.1°C 58% 3.5 mph WNW5.6 kmh WNW 3.5 mph5.6 kmh 29.48 in998.3 mb - 0.00 in0.0 mm 0.00 in0.0 mm
10:00 PM 45.5°F7.5°C 32.0°F0.0°C 59% 3.5 mph NW5.6 kmh NW 4.6 mph7.4 kmh 29.49 in998.6 mb - 0.00 in0.0 mm 0.00 in0.0 mm
10:10 PM 44.8°F7.1°C 30.5°F-0.8°C 57% 3.5 mph NW5.6 kmh NW 2.3 mph3.7 kmh 29.49 in998.6 mb - 0.00 in0.0 mm 0.00 in0.0 mm
10:15 PM 44.6°F7.0°C 30.3°F-0.9°C 57% 2.3 mph NW3.7 kmh NW 3.5 mph5.6 kmh 29.48 in998.3 mb - 0.00 in0.0 mm 0.00 in0.0 mm
10:20 PM 44.6°F7.0°C 30.7°F-0.7°C 58% 3.5 mph NW5.6 kmh NW 3.5 mph5.6 kmh 29.48 in998.3 mb - 0.00 in0.0 mm 0.00 in0.0 mm
10:25 PM 44.6°F7.0°C 31.6°F-0.2°C 60% 4.6 mph NW7.4 kmh NW 8.1 mph13.0 kmh 29.48 in998.3 mb - 0.00 in0.0 mm 0.00 in0.0 mm
10:30 PM 44.8°F7.1°C 32.5°F0.3°C 62% 3.5 mph NW5.6 kmh NW 3.5 mph5.6 kmh 29.49 in998.6 mb - 0.00 in0.0 mm 0.00 in0.0 mm
10:35 PM 45.0°F7.2°C 33.1°F0.6°C 63% 3.5 mph NW5.6 kmh NW 3.5 mph5.6 kmh 29.49 in998.6 mb - 0.00 in0.0 mm 0.00 in0.0 mm
10:40 PM 44.9°F7.2°C 32.7°F0.4°C 62% 3.5 mph NW5.6 kmh NW 3.5 mph5.6 kmh 29.49 in998.6 mb - 0.00 in0.0 mm 0.00 in0.0 mm
10:45 PM 45.0°F7.2°C 32.7°F0.4°C 62% 3.5 mph WNW5.6 kmh WNW 3.5 mph5.6 kmh 29.50 in999.0 mb - 0.00 in0.0 mm 0.00 in0.0 mm
10:50 PM 44.8°F7.1°C 32.2°F0.1°C 61% 5.8 mph NW9.3 kmh NW 4.6 mph7.4 kmh 29.50 in999.0 mb - 0.00 in0.0 mm 0.00 in0.0 mm
10:55 PM 45.1°F7.3°C 32.9°F0.5°C 62% 4.6 mph NNW7.4 kmh NNW 6.9 mph11.1 kmh 29.50 in999.0 mb - 0.00 in0.0 mm 0.00 in0.0 mm
11:00 PM 45.5°F7.5°C 33.2°F0.7°C 62% 5.8 mph NW9.3 kmh NW 4.6 mph7.4 kmh 29.49 in998.6 mb - 0.00 in0.0 mm 0.00 in0.0 mm
11:10 PM 45.0°F7.2°C 31.9°F-0.1°C 60% 4.6 mph WNW7.4 kmh WNW 5.8 mph9.3 kmh 29.49 in998.6 mb - 0.00 in0.0 mm 0.00 in0.0 mm
11:15 PM 45.0°F7.2°C 32.7°F0.4°C 62% 4.6 mph WNW7.4 kmh WNW 6.9 mph11.1 kmh 29.49 in998.6 mb - 0.00 in0.0 mm 0.00 in0.0 mm
11:20 PM 44.6°F7.0°C 31.6°F-0.2°C 60% 4.6 mph W7.4 kmh W 6.9 mph11.1 kmh 29.49 in998.6 mb - 0.00 in0.0 mm 0.00 in0.0 mm
11:25 PM 44.6°F7.0°C 32.0°F0.0°C 61% 4.6 mph NW7.4 kmh NW 5.8 mph9.3 kmh 29.49 in998.6 mb - 0.00 in0.0 mm 0.00 in0.0 mm
11:30 PM 45.0°F7.2°C 33.1°F0.6°C 63% 4.6 mph NNW7.4 kmh NNW 4.6 mph7.4 kmh 29.49 in998.6 mb - 0.00 in0.0 mm 0.00 in0.0 mm
11:35 PM 45.1°F7.3°C 33.7°F0.9°C 64% 6.9 mph WNW11.1 kmh WNW 9.2 mph14.8 kmh 29.49 in998.6 mb - 0.00 in0.0 mm 0.00 in0.0 mm
11:40 PM 45.1°F7.3°C 33.7°F0.9°C 64% 4.6 mph NW7.4 kmh NW 6.9 mph11.1 kmh 29.49 in998.6 mb - 0.00 in0.0 mm 0.00 in0.0 mm
11:45 PM 45.0°F7.2°C 33.5°F0.8°C 64% 5.8 mph N9.3 kmh N 4.6 mph7.4 kmh 29.50 in999.0 mb - 0.00 in0.0 mm 0.00 in0.0 mm
11:50 PM 44.6°F7.0°C 33.2°F0.7°C 64% 4.6 mph WNW7.4 kmh WNW 4.6 mph7.4 kmh 29.50 in999.0 mb - 0.00 in0.0 mm 0.00 in0.0 mm
11:55 PM 44.4°F6.9°C 33.4°F0.8°C 65% 3.5 mph NW5.6 kmh NW 5.8 mph9.3 kmh 29.50 in999.0 mb - 0.00 in0.0 mm 0.00 in0.0 mm